sensor_id;sensor_type;location;lat;lon;timestamp;temperature;humidity
67777;DHT22;54576;52.020;5.536;2022-07-24T00:01:01;18.50;65.20
67777;DHT22;54576;52.020;5.536;2022-07-24T00:03:27;18.50;65.10
67777;DHT22;54576;52.020;5.536;2022-07-24T00:05:53;18.50;65.20
67777;DHT22;54576;52.020;5.536;2022-07-24T00:08:19;18.50;65.20
67777;DHT22;54576;52.020;5.536;2022-07-24T00:10:44;18.60;65.40
67777;DHT22;54576;52.020;5.536;2022-07-24T00:13:10;18.50;65.30
67777;DHT22;54576;52.020;5.536;2022-07-24T00:15:35;18.50;65.40
67777;DHT22;54576;52.020;5.536;2022-07-24T00:18:01;18.50;65.40
67777;DHT22;54576;52.020;5.536;2022-07-24T00:20:26;18.50;65.40
67777;DHT22;54576;52.020;5.536;2022-07-24T00:22:52;18.50;65.50
67777;DHT22;54576;52.020;5.536;2022-07-24T00:25:18;18.50;65.60
67777;DHT22;54576;52.020;5.536;2022-07-24T00:27:43;18.50;65.60
67777;DHT22;54576;52.020;5.536;2022-07-24T00:30:09;18.50;65.60
67777;DHT22;54576;52.020;5.536;2022-07-24T00:32:35;18.50;65.60
67777;DHT22;54576;52.020;5.536;2022-07-24T00:35:00;18.50;65.70
67777;DHT22;54576;52.020;5.536;2022-07-24T00:37:29;18.40;65.70
67777;DHT22;54576;52.020;5.536;2022-07-24T00:39:54;18.40;65.80
67777;DHT22;54576;52.020;5.536;2022-07-24T00:42:20;18.40;65.80
67777;DHT22;54576;52.020;5.536;2022-07-24T00:44:45;18.40;65.80
67777;DHT22;54576;52.020;5.536;2022-07-24T00:47:11;18.40;65.90
67777;DHT22;54576;52.020;5.536;2022-07-24T00:49:37;18.30;66.00
67777;DHT22;54576;52.020;5.536;2022-07-24T00:52:03;18.30;66.10
67777;DHT22;54576;52.020;5.536;2022-07-24T00:54:29;18.30;66.10
67777;DHT22;54576;52.020;5.536;2022-07-24T00:56:55;18.30;66.20
67777;DHT22;54576;52.020;5.536;2022-07-24T00:59:21;18.20;66.50
67777;DHT22;54576;52.020;5.536;2022-07-24T01:01:48;18.20;66.40
67777;DHT22;54576;52.020;5.536;2022-07-24T01:04:13;18.20;66.50
67777;DHT22;54576;52.020;5.536;2022-07-24T01:06:41;18.20;66.60
67777;DHT22;54576;52.020;5.536;2022-07-24T01:09:07;18.20;66.70
67777;DHT22;54576;52.020;5.536;2022-07-24T01:11:33;18.10;66.80
67777;DHT22;54576;52.020;5.536;2022-07-24T01:13:59;18.10;66.90
67777;DHT22;54576;52.020;5.536;2022-07-24T01:16:24;18.10;66.90
67777;DHT22;54576;52.020;5.536;2022-07-24T01:18:50;18.00;66.90
67777;DHT22;54576;52.020;5.536;2022-07-24T01:21:16;18.00;66.90
67777;DHT22;54576;52.020;5.536;2022-07-24T01:23:42;18.00;67.00
67777;DHT22;54576;52.020;5.536;2022-07-24T01:26:08;18.00;67.00
67777;DHT22;54576;52.020;5.536;2022-07-24T01:28:35;18.00;67.10
67777;DHT22;54576;52.020;5.536;2022-07-24T01:31:01;18.00;68.00
67777;DHT22;54576;52.020;5.536;2022-07-24T01:33:27;18.00;67.00
67777;DHT22;54576;52.020;5.536;2022-07-24T01:35:53;18.00;66.90
67777;DHT22;54576;52.020;5.536;2022-07-24T01:38:18;18.10;66.80
67777;DHT22;54576;52.020;5.536;2022-07-24T01:40:45;18.10;66.80
67777;DHT22;54576;52.020;5.536;2022-07-24T01:43:10;18.10;66.80
67777;DHT22;54576;52.020;5.536;2022-07-24T01:45:37;18.10;66.80
67777;DHT22;54576;52.020;5.536;2022-07-24T01:48:03;18.10;66.70
67777;DHT22;54576;52.020;5.536;2022-07-24T01:50:29;18.10;66.70
67777;DHT22;54576;52.020;5.536;2022-07-24T01:52:55;18.20;66.70
67777;DHT22;54576;52.020;5.536;2022-07-24T01:55:21;18.20;66.70
67777;DHT22;54576;52.020;5.536;2022-07-24T01:57:47;18.20;66.70
67777;DHT22;54576;52.020;5.536;2022-07-24T02:00:13;18.10;66.60
67777;DHT22;54576;52.020;5.536;2022-07-24T02:02:41;18.10;66.60
67777;DHT22;54576;52.020;5.536;2022-07-24T02:05:07;18.10;66.70
67777;DHT22;54576;52.020;5.536;2022-07-24T02:07:33;18.10;66.70
67777;DHT22;54576;52.020;5.536;2022-07-24T02:09:59;18.10;66.80
67777;DHT22;54576;52.020;5.536;2022-07-24T02:12:24;18.10;66.80
67777;DHT22;54576;52.020;5.536;2022-07-24T02:14:50;18.10;66.80
67777;DHT22;54576;52.020;5.536;2022-07-24T02:17:16;18.10;66.60
67777;DHT22;54576;52.020;5.536;2022-07-24T02:19:41;18.10;66.60
67777;DHT22;54576;52.020;5.536;2022-07-24T02:22:07;18.10;66.60
67777;DHT22;54576;52.020;5.536;2022-07-24T02:24:32;18.20;66.60
67777;DHT22;54576;52.020;5.536;2022-07-24T02:26:58;18.10;66.60
67777;DHT22;54576;52.020;5.536;2022-07-24T02:29:24;18.20;66.70
67777;DHT22;54576;52.020;5.536;2022-07-24T02:31:49;18.10;66.60
67777;DHT22;54576;52.020;5.536;2022-07-24T02:34:15;18.20;66.50
67777;DHT22;54576;52.020;5.536;2022-07-24T02:36:40;18.20;66.50
67777;DHT22;54576;52.020;5.536;2022-07-24T02:39:06;18.20;66.50
67777;DHT22;54576;52.020;5.536;2022-07-24T02:41:32;18.20;66.50
67777;DHT22;54576;52.020;5.536;2022-07-24T02:43:57;18.10;66.50
67777;DHT22;54576;52.020;5.536;2022-07-24T02:46:23;18.10;66.50
67777;DHT22;54576;52.020;5.536;2022-07-24T02:48:48;18.10;66.60
67777;DHT22;54576;52.020;5.536;2022-07-24T02:51:14;18.10;66.70
67777;DHT22;54576;52.020;5.536;2022-07-24T02:53:40;18.10;66.70
67777;DHT22;54576;52.020;5.536;2022-07-24T02:56:05;18.10;66.80
67777;DHT22;54576;52.020;5.536;2022-07-24T02:58:31;18.10;66.80
67777;DHT22;54576;52.020;5.536;2022-07-24T03:00:57;18.00;66.80
67777;DHT22;54576;52.020;5.536;2022-07-24T03:03:22;18.00;66.90
67777;DHT22;54576;52.020;5.536;2022-07-24T03:05:48;18.00;66.90
67777;DHT22;54576;52.020;5.536;2022-07-24T03:08:14;18.00;66.80
67777;DHT22;54576;52.020;5.536;2022-07-24T03:10:39;18.00;66.90
67777;DHT22;54576;52.020;5.536;2022-07-24T03:13:05;18.00;67.00
67777;DHT22;54576;52.020;5.536;2022-07-24T03:15:31;18.00;67.00
67777;DHT22;54576;52.020;5.536;2022-07-24T03:17:57;18.00;67.10
67777;DHT22;54576;52.020;5.536;2022-07-24T03:20:25;18.00;67.10
67777;DHT22;54576;52.020;5.536;2022-07-24T03:22:51;18.00;67.10
67777;DHT22;54576;52.020;5.536;2022-07-24T03:25:17;18.00;67.10
67777;DHT22;54576;52.020;5.536;2022-07-24T03:27:43;17.90;67.10
67777;DHT22;54576;52.020;5.536;2022-07-24T03:30:10;18.00;67.20
67777;DHT22;54576;52.020;5.536;2022-07-24T03:32:36;17.90;67.20
67777;DHT22;54576;52.020;5.536;2022-07-24T03:35:02;17.90;67.20
67777;DHT22;54576;52.020;5.536;2022-07-24T03:37:28;17.90;67.30
67777;DHT22;54576;52.020;5.536;2022-07-24T03:39:54;17.80;67.40
67777;DHT22;54576;52.020;5.536;2022-07-24T03:42:20;17.80;67.50
67777;DHT22;54576;52.020;5.536;2022-07-24T03:44:46;17.80;67.60
67777;DHT22;54576;52.020;5.536;2022-07-24T03:47:11;17.80;67.60
67777;DHT22;54576;52.020;5.536;2022-07-24T03:49:37;17.80;67.70
67777;DHT22;54576;52.020;5.536;2022-07-24T03:52:03;17.80;67.80
67777;DHT22;54576;52.020;5.536;2022-07-24T03:54:29;17.80;67.80
67777;DHT22;54576;52.020;5.536;2022-07-24T03:56:54;17.80;67.90
67777;DHT22;54576;52.020;5.536;2022-07-24T03:59:20;17.80;67.90
67777;DHT22;54576;52.020;5.536;2022-07-24T04:01:46;17.80;67.90
67777;DHT22;54576;52.020;5.536;2022-07-24T04:04:12;17.80;67.90
67777;DHT22;54576;52.020;5.536;2022-07-24T04:06:37;17.80;67.90
67777;DHT22;54576;52.020;5.536;2022-07-24T04:09:05;17.80;67.90
67777;DHT22;54576;52.020;5.536;2022-07-24T04:11:30;17.80;68.00
67777;DHT22;54576;52.020;5.536;2022-07-24T04:13:57;17.80;68.00
67777;DHT22;54576;52.020;5.536;2022-07-24T04:16:23;17.80;68.10
67777;DHT22;54576;52.020;5.536;2022-07-24T04:18:49;17.80;68.20
67777;DHT22;54576;52.020;5.536;2022-07-24T04:21:15;17.80;68.20
67777;DHT22;54576;52.020;5.536;2022-07-24T04:23:41;17.80;68.30
67777;DHT22;54576;52.020;5.536;2022-07-24T04:26:07;17.80;68.40
67777;DHT22;54576;52.020;5.536;2022-07-24T04:28:32;17.80;68.50
67777;DHT22;54576;52.020;5.536;2022-07-24T04:30:59;17.80;68.50
67777;DHT22;54576;52.020;5.536;2022-07-24T04:33:25;17.80;68.70
67777;DHT22;54576;52.020;5.536;2022-07-24T04:35:50;17.80;68.70
67777;DHT22;54576;52.020;5.536;2022-07-24T04:38:16;17.80;68.70
67777;DHT22;54576;52.020;5.536;2022-07-24T04:40:42;17.80;68.70
67777;DHT22;54576;52.020;5.536;2022-07-24T04:43:07;17.80;68.70
67777;DHT22;54576;52.020;5.536;2022-07-24T04:45:33;17.90;68.70
67777;DHT22;54576;52.020;5.536;2022-07-24T04:47:59;17.90;68.70
67777;DHT22;54576;52.020;5.536;2022-07-24T04:50:24;17.90;68.80
67777;DHT22;54576;52.020;5.536;2022-07-24T04:52:50;18.00;68.90
67777;DHT22;54576;52.020;5.536;2022-07-24T04:55:15;18.10;68.90
67777;DHT22;54576;52.020;5.536;2022-07-24T04:57:41;18.20;68.80
67777;DHT22;54576;52.020;5.536;2022-07-24T05:00:10;18.40;68.60
67777;DHT22;54576;52.020;5.536;2022-07-24T05:02:35;18.70;68.30
67777;DHT22;54576;52.020;5.536;2022-07-24T05:05:02;18.80;69.50
67777;DHT22;54576;52.020;5.536;2022-07-24T05:07:28;18.90;67.90
67777;DHT22;54576;52.020;5.536;2022-07-24T05:09:53;19.00;67.80
67777;DHT22;54576;52.020;5.536;2022-07-24T05:12:19;19.20;67.80
67777;DHT22;54576;52.020;5.536;2022-07-24T05:14:45;19.60;67.60
67777;DHT22;54576;52.020;5.536;2022-07-24T05:17:10;20.20;67.30
67777;DHT22;54576;52.020;5.536;2022-07-24T05:19:36;20.90;90.20
67777;DHT22;54576;52.020;5.536;2022-07-24T05:22:02;21.30;66.10
67777;DHT22;54576;52.020;5.536;2022-07-24T05:24:27;21.70;65.60
67777;DHT22;54576;52.020;5.536;2022-07-24T05:26:53;22.30;65.10
67777;DHT22;54576;52.020;5.536;2022-07-24T05:29:19;22.70;64.60
67777;DHT22;54576;52.020;5.536;2022-07-24T05:31:44;23.10;64.20
67777;DHT22;54576;52.020;5.536;2022-07-24T05:34:10;23.50;63.70
67777;DHT22;54576;52.020;5.536;2022-07-24T05:36:36;23.90;63.40
67777;DHT22;54576;52.020;5.536;2022-07-24T05:39:02;24.10;63.10
67777;DHT22;54576;52.020;5.536;2022-07-24T05:41:28;24.40;63.10
67777;DHT22;54576;52.020;5.536;2022-07-24T05:43:53;24.60;62.90
67777;DHT22;54576;52.020;5.536;2022-07-24T05:46:19;24.90;62.90
67777;DHT22;54576;52.020;5.536;2022-07-24T05:48:45;25.10;62.80
67777;DHT22;54576;52.020;5.536;2022-07-24T05:51:11;25.30;62.70
67777;DHT22;54576;52.020;5.536;2022-07-24T05:53:37;25.40;63.60
67777;DHT22;54576;52.020;5.536;2022-07-24T05:56:03;25.30;62.80
67777;DHT22;54576;52.020;5.536;2022-07-24T05:58:30;25.40;62.90
67777;DHT22;54576;52.020;5.536;2022-07-24T06:00:55;25.50;63.00
67777;DHT22;54576;52.020;5.536;2022-07-24T06:03:21;25.60;63.20
67777;DHT22;54576;52.020;5.536;2022-07-24T06:05:47;25.70;63.00
67777;DHT22;54576;52.020;5.536;2022-07-24T06:08:13;25.90;63.10
67777;DHT22;54576;52.020;5.536;2022-07-24T06:10:39;26.00;63.00
67777;DHT22;54576;52.020;5.536;2022-07-24T06:13:05;26.00;63.10
67777;DHT22;54576;52.020;5.536;2022-07-24T06:15:31;26.10;63.30
67777;DHT22;54576;52.020;5.536;2022-07-24T06:17:56;26.10;63.30
67777;DHT22;54576;52.020;5.536;2022-07-24T06:20:22;26.30;63.20
67777;DHT22;54576;52.020;5.536;2022-07-24T06:22:48;26.30;62.70
67777;DHT22;54576;52.020;5.536;2022-07-24T06:25:13;26.40;63.00
67777;DHT22;54576;52.020;5.536;2022-07-24T06:27:43;26.40;62.90
67777;DHT22;54576;52.020;5.536;2022-07-24T06:32:39;26.50;62.50
67777;DHT22;54576;52.020;5.536;2022-07-24T06:35:05;26.50;63.00
67777;DHT22;54576;52.020;5.536;2022-07-24T06:37:31;26.70;62.90
67777;DHT22;54576;52.020;5.536;2022-07-24T06:39:56;26.60;62.80
67777;DHT22;54576;52.020;5.536;2022-07-24T06:42:22;26.50;62.90
67777;DHT22;54576;52.020;5.536;2022-07-24T06:44:48;26.50;62.90
67777;DHT22;54576;52.020;5.536;2022-07-24T06:47:13;26.70;62.70
67777;DHT22;54576;52.020;5.536;2022-07-24T06:49:39;26.80;62.40
67777;DHT22;54576;52.020;5.536;2022-07-24T06:52:04;27.00;61.90
67777;DHT22;54576;52.020;5.536;2022-07-24T06:54:30;27.00;61.40
67777;DHT22;54576;52.020;5.536;2022-07-24T06:56:56;27.00;61.40
67777;DHT22;54576;52.020;5.536;2022-07-24T06:59:21;27.10;61.20
67777;DHT22;54576;52.020;5.536;2022-07-24T07:01:47;27.20;61.10
67777;DHT22;54576;52.020;5.536;2022-07-24T07:04:13;27.30;60.90
67777;DHT22;54576;52.020;5.536;2022-07-24T07:06:38;27.40;60.40
67777;DHT22;54576;52.020;5.536;2022-07-24T07:09:04;27.30;60.20
67777;DHT22;54576;52.020;5.536;2022-07-24T07:11:30;27.30;60.20
67777;DHT22;54576;52.020;5.536;2022-07-24T07:13:56;27.30;59.80
67777;DHT22;54576;52.020;5.536;2022-07-24T07:16:22;27.40;59.60
67777;DHT22;54576;52.020;5.536;2022-07-24T07:18:48;27.40;59.20
67777;DHT22;54576;52.020;5.536;2022-07-24T07:21:14;27.40;58.30
67777;DHT22;54576;52.020;5.536;2022-07-24T07:23:40;27.30;58.10
67777;DHT22;54576;52.020;5.536;2022-07-24T07:26:05;27.30;58.80
67777;DHT22;54576;52.020;5.536;2022-07-24T07:28:31;27.20;57.30
67777;DHT22;54576;52.020;5.536;2022-07-24T07:30:57;27.30;57.00
67777;DHT22;54576;52.020;5.536;2022-07-24T07:33:23;27.20;56.40
67777;DHT22;54576;52.020;5.536;2022-07-24T07:35:48;27.20;55.70
67777;DHT22;54576;52.020;5.536;2022-07-24T07:38:15;27.00;55.60
67777;DHT22;54576;52.020;5.536;2022-07-24T07:40:40;26.70;55.10
67777;DHT22;54576;52.020;5.536;2022-07-24T07:43:06;26.50;55.20
67777;DHT22;54576;52.020;5.536;2022-07-24T07:45:31;26.40;55.40
67777;DHT22;54576;52.020;5.536;2022-07-24T07:47:57;26.20;54.90
67777;DHT22;54576;52.020;5.536;2022-07-24T07:50:22;26.10;54.80
67777;DHT22;54576;52.020;5.536;2022-07-24T07:52:48;26.00;54.40
67777;DHT22;54576;52.020;5.536;2022-07-24T07:55:14;25.80;54.70
67777;DHT22;54576;52.020;5.536;2022-07-24T07:57:40;25.70;54.30
67777;DHT22;54576;52.020;5.536;2022-07-24T08:00:07;25.60;54.20
67777;DHT22;54576;52.020;5.536;2022-07-24T08:02:33;25.50;54.20
67777;DHT22;54576;52.020;5.536;2022-07-24T08:04:59;25.40;54.10
67777;DHT22;54576;52.020;5.536;2022-07-24T08:07:25;25.50;54.20
67777;DHT22;54576;52.020;5.536;2022-07-24T08:09:50;25.50;54.00
67777;DHT22;54576;52.020;5.536;2022-07-24T08:12:16;25.40;54.10
67777;DHT22;54576;52.020;5.536;2022-07-24T08:14:42;25.50;54.10
67777;DHT22;54576;52.020;5.536;2022-07-24T08:17:07;25.60;53.80
67777;DHT22;54576;52.020;5.536;2022-07-24T08:19:33;25.70;53.50
67777;DHT22;54576;52.020;5.536;2022-07-24T08:21:58;25.70;53.40
67777;DHT22;54576;52.020;5.536;2022-07-24T08:24:24;25.60;53.40
67777;DHT22;54576;52.020;5.536;2022-07-24T08:26:50;25.60;53.40
67777;DHT22;54576;52.020;5.536;2022-07-24T08:29:16;25.50;53.50
67777;DHT22;54576;52.020;5.536;2022-07-24T08:31:42;25.40;53.70
67777;DHT22;54576;52.020;5.536;2022-07-24T08:34:08;25.40;53.80
67777;DHT22;54576;52.020;5.536;2022-07-24T08:36:34;25.50;53.60
67777;DHT22;54576;52.020;5.536;2022-07-24T08:38:59;25.60;53.70
67777;DHT22;54576;52.020;5.536;2022-07-24T08:41:27;25.60;53.40
67777;DHT22;54576;52.020;5.536;2022-07-24T08:43:58;25.70;53.20
67777;DHT22;54576;52.020;5.536;2022-07-24T08:46:25;25.80;53.30
67777;DHT22;54576;52.020;5.536;2022-07-24T08:48:52;25.90;53.30
67777;DHT22;54576;52.020;5.536;2022-07-24T08:51:19;26.00;53.00
67777;DHT22;54576;52.020;5.536;2022-07-24T08:53:45;26.10;52.80
67777;DHT22;54576;52.020;5.536;2022-07-24T08:56:12;26.10;52.40
67777;DHT22;54576;52.020;5.536;2022-07-24T08:58:39;26.20;52.50
67777;DHT22;54576;52.020;5.536;2022-07-24T09:01:06;26.30;52.60
67777;DHT22;54576;52.020;5.536;2022-07-24T09:03:42;26.30;52.60
67777;DHT22;54576;52.020;5.536;2022-07-24T09:06:10;26.30;52.30
67777;DHT22;54576;52.020;5.536;2022-07-24T09:08:38;26.40;52.20
67777;DHT22;54576;52.020;5.536;2022-07-24T09:11:04;26.50;52.50
67777;DHT22;54576;52.020;5.536;2022-07-24T09:16:19;26.70;90.40
67777;DHT22;54576;52.020;5.536;2022-07-24T09:19:06;26.60;52.10
67777;DHT22;54576;52.020;5.536;2022-07-24T09:21:36;26.70;51.60
67777;DHT22;54576;52.020;5.536;2022-07-24T09:24:16;26.60;52.00
67777;DHT22;54576;52.020;5.536;2022-07-24T09:26:50;26.80;51.30
67777;DHT22;54576;52.020;5.536;2022-07-24T09:29:17;26.80;51.80
67777;DHT22;54576;52.020;5.536;2022-07-24T09:34:27;26.70;51.00
67777;DHT22;54576;52.020;5.536;2022-07-24T09:36:59;26.80;52.00
67777;DHT22;54576;52.020;5.536;2022-07-24T09:41:54;26.90;50.70
67777;DHT22;54576;52.020;5.536;2022-07-24T09:44:20;27.00;51.50
67777;DHT22;54576;52.020;5.536;2022-07-24T09:46:59;27.00;51.60
67777;DHT22;54576;52.020;5.536;2022-07-24T09:49:26;27.10;51.20
67777;DHT22;54576;52.020;5.536;2022-07-24T09:54:31;27.30;50.90
67777;DHT22;54576;52.020;5.536;2022-07-24T09:57:17;27.30;51.20
67777;DHT22;54576;52.020;5.536;2022-07-24T09:59:49;27.20;50.80
67777;DHT22;54576;52.020;5.536;2022-07-24T10:02:18;27.30;51.20
67777;DHT22;54576;52.020;5.536;2022-07-24T10:04:45;27.30;50.80
67777;DHT22;54576;52.020;5.536;2022-07-24T10:07:12;27.30;50.80
67777;DHT22;54576;52.020;5.536;2022-07-24T10:09:44;27.30;51.10
67777;DHT22;54576;52.020;5.536;2022-07-24T10:12:16;27.30;51.00
67777;DHT22;54576;52.020;5.536;2022-07-24T10:14:43;27.40;51.30
67777;DHT22;54576;52.020;5.536;2022-07-24T10:17:10;27.50;50.80
67777;DHT22;54576;52.020;5.536;2022-07-24T10:19:47;27.50;50.80
67777;DHT22;54576;52.020;5.536;2022-07-24T10:22:14;27.60;50.50
67777;DHT22;54576;52.020;5.536;2022-07-24T10:29:56;27.60;50.10
67777;DHT22;54576;52.020;5.536;2022-07-24T10:32:23;27.60;50.40
67777;DHT22;54576;52.020;5.536;2022-07-24T10:35:13;27.80;50.40
67777;DHT22;54576;52.020;5.536;2022-07-24T10:45:33;28.00;50.00
67777;DHT22;54576;52.020;5.536;2022-07-24T10:53:27;28.20;49.60
67777;DHT22;54576;52.020;5.536;2022-07-24T11:01:52;28.10;48.80
67777;DHT22;54576;52.020;5.536;2022-07-24T11:06:49;28.00;49.70
67777;DHT22;54576;52.020;5.536;2022-07-24T11:09:16;28.10;49.30
67777;DHT22;54576;52.020;5.536;2022-07-24T11:12:03;28.20;49.20
67777;DHT22;54576;52.020;5.536;2022-07-24T11:17:35;28.20;48.60
67777;DHT22;54576;52.020;5.536;2022-07-24T11:20:02;28.30;48.40
67777;DHT22;54576;52.020;5.536;2022-07-24T11:23:01;28.30;49.00
67777;DHT22;54576;52.020;5.536;2022-07-24T11:25:44;28.30;45.90
67777;DHT22;54576;52.020;5.536;2022-07-24T11:30:41;28.40;49.00
67777;DHT22;54576;52.020;5.536;2022-07-24T11:33:10;28.50;48.50
67777;DHT22;54576;52.020;5.536;2022-07-24T11:35:37;28.60;48.70
67777;DHT22;54576;52.020;5.536;2022-07-24T11:38:06;28.60;48.90
67777;DHT22;54576;52.020;5.536;2022-07-24T11:40:32;28.70;48.30
67777;DHT22;54576;52.020;5.536;2022-07-24T11:43:02;28.80;57.90
67777;DHT22;54576;52.020;5.536;2022-07-24T11:45:29;28.70;48.10
67777;DHT22;54576;52.020;5.536;2022-07-24T11:47:54;28.80;48.30
67777;DHT22;54576;52.020;5.536;2022-07-24T11:50:25;28.70;48.30
67777;DHT22;54576;52.020;5.536;2022-07-24T11:52:51;28.70;48.30
67777;DHT22;54576;52.020;5.536;2022-07-24T11:55:22;28.80;48.40
67777;DHT22;54576;52.020;5.536;2022-07-24T11:57:50;28.90;76.50
67777;DHT22;54576;52.020;5.536;2022-07-24T12:00:19;28.80;47.90
67777;DHT22;54576;52.020;5.536;2022-07-24T12:02:50;28.80;48.00
67777;DHT22;54576;52.020;5.536;2022-07-24T12:07:53;29.00;66.50
67777;DHT22;54576;52.020;5.536;2022-07-24T12:10:20;28.90;47.80
67777;DHT22;54576;52.020;5.536;2022-07-24T12:12:48;28.80;48.00
67777;DHT22;54576;52.020;5.536;2022-07-24T12:15:15;28.70;47.70
67777;DHT22;54576;52.020;5.536;2022-07-24T12:18:00;28.80;48.20
67777;DHT22;54576;52.020;5.536;2022-07-24T12:20:32;28.80;47.70
67777;DHT22;54576;52.020;5.536;2022-07-24T12:22:59;28.90;48.40
67777;DHT22;54576;52.020;5.536;2022-07-24T12:25:26;29.10;62.20
67777;DHT22;54576;52.020;5.536;2022-07-24T12:30:32;29.20;47.40
67777;DHT22;54576;52.020;5.536;2022-07-24T12:33:09;29.20;48.00
67777;DHT22;54576;52.020;5.536;2022-07-24T12:41:08;29.10;46.50
67777;DHT22;54576;52.020;5.536;2022-07-24T12:43:53;29.20;91.10
67777;DHT22;54576;52.020;5.536;2022-07-24T12:46:24;29.20;47.20
67777;DHT22;54576;52.020;5.536;2022-07-24T12:49:09;29.20;47.90
67777;DHT22;54576;52.020;5.536;2022-07-24T12:51:56;29.20;47.80
67777;DHT22;54576;52.020;5.536;2022-07-24T12:54:31;29.30;46.20
67777;DHT22;54576;52.020;5.536;2022-07-24T12:57:11;29.30;47.10
67777;DHT22;54576;52.020;5.536;2022-07-24T12:59:46;29.30;46.30
67777;DHT22;54576;52.020;5.536;2022-07-24T13:04:53;29.30;47.40
67777;DHT22;54576;52.020;5.536;2022-07-24T13:07:21;29.30;47.40
67777;DHT22;54576;52.020;5.536;2022-07-24T13:09:48;29.40;47.60
67777;DHT22;54576;52.020;5.536;2022-07-24T13:12:14;29.50;47.50
67777;DHT22;54576;52.020;5.536;2022-07-24T13:14:42;29.60;47.50
67777;DHT22;54576;52.020;5.536;2022-07-24T13:17:10;29.60;47.50
67777;DHT22;54576;52.020;5.536;2022-07-24T13:19:37;29.60;47.60
67777;DHT22;54576;52.020;5.536;2022-07-24T13:22:03;29.60;47.50
67777;DHT22;54576;52.020;5.536;2022-07-24T13:24:29;29.60;47.40
67777;DHT22;54576;52.020;5.536;2022-07-24T13:27:03;29.60;47.30
67777;DHT22;54576;52.020;5.536;2022-07-24T13:29:29;29.60;47.50
67777;DHT22;54576;52.020;5.536;2022-07-24T13:31:55;29.60;47.40
67777;DHT22;54576;52.020;5.536;2022-07-24T13:34:21;29.70;47.40
67777;DHT22;54576;52.020;5.536;2022-07-24T13:36:47;29.70;47.20
67777;DHT22;54576;52.020;5.536;2022-07-24T13:39:14;29.70;47.40
67777;DHT22;54576;52.020;5.536;2022-07-24T13:41:40;29.80;47.30
67777;DHT22;54576;52.020;5.536;2022-07-24T13:44:05;29.80;47.00
67777;DHT22;54576;52.020;5.536;2022-07-24T13:46:32;29.80;47.00
67777;DHT22;54576;52.020;5.536;2022-07-24T13:49:00;29.90;47.10
67777;DHT22;54576;52.020;5.536;2022-07-24T13:51:26;29.90;47.00
67777;DHT22;54576;52.020;5.536;2022-07-24T13:53:52;29.90;47.20
67777;DHT22;54576;52.020;5.536;2022-07-24T13:56:18;29.90;47.00
67777;DHT22;54576;52.020;5.536;2022-07-24T13:58:43;29.90;47.00
67777;DHT22;54576;52.020;5.536;2022-07-24T14:01:10;29.80;47.00
67777;DHT22;54576;52.020;5.536;2022-07-24T14:03:38;29.90;47.00
67777;DHT22;54576;52.020;5.536;2022-07-24T14:06:08;29.80;47.00
67777;DHT22;54576;52.020;5.536;2022-07-24T14:08:34;29.70;47.10
67777;DHT22;54576;52.020;5.536;2022-07-24T14:10:59;29.80;47.30
67777;DHT22;54576;52.020;5.536;2022-07-24T14:13:25;29.90;47.30
67777;DHT22;54576;52.020;5.536;2022-07-24T14:15:51;29.90;47.10
67777;DHT22;54576;52.020;5.536;2022-07-24T14:18:16;30.00;46.80
67777;DHT22;54576;52.020;5.536;2022-07-24T14:20:42;30.00;46.90
67777;DHT22;54576;52.020;5.536;2022-07-24T14:23:08;30.00;47.00
67777;DHT22;54576;52.020;5.536;2022-07-24T14:25:34;30.00;47.00
67777;DHT22;54576;52.020;5.536;2022-07-24T14:27:59;30.10;46.90
67777;DHT22;54576;52.020;5.536;2022-07-24T14:30:25;30.20;46.70
67777;DHT22;54576;52.020;5.536;2022-07-24T14:32:50;30.20;46.70
67777;DHT22;54576;52.020;5.536;2022-07-24T14:35:16;30.20;46.60
67777;DHT22;54576;52.020;5.536;2022-07-24T14:37:41;30.20;46.40
67777;DHT22;54576;52.020;5.536;2022-07-24T14:40:08;30.10;46.50
67777;DHT22;54576;52.020;5.536;2022-07-24T14:42:35;30.00;46.50
67777;DHT22;54576;52.020;5.536;2022-07-24T14:45:02;30.00;46.60
67777;DHT22;54576;52.020;5.536;2022-07-24T14:47:28;30.00;46.60
67777;DHT22;54576;52.020;5.536;2022-07-24T14:49:53;30.10;46.60
67777;DHT22;54576;52.020;5.536;2022-07-24T14:52:21;30.10;46.50
67777;DHT22;54576;52.020;5.536;2022-07-24T14:54:47;30.20;46.40
67777;DHT22;54576;52.020;5.536;2022-07-24T14:57:13;30.20;46.10
67777;DHT22;54576;52.020;5.536;2022-07-24T14:59:40;30.20;46.20
67777;DHT22;54576;52.020;5.536;2022-07-24T15:02:06;30.20;46.20
67777;DHT22;54576;52.020;5.536;2022-07-24T15:04:32;30.30;46.20
67777;DHT22;54576;52.020;5.536;2022-07-24T15:06:57;30.20;46.20
67777;DHT22;54576;52.020;5.536;2022-07-24T15:09:23;30.20;46.10
67777;DHT22;54576;52.020;5.536;2022-07-24T15:11:48;30.20;46.30
67777;DHT22;54576;52.020;5.536;2022-07-24T15:14:14;30.30;46.20
67777;DHT22;54576;52.020;5.536;2022-07-24T15:16:39;30.30;46.00
67777;DHT22;54576;52.020;5.536;2022-07-24T15:19:05;30.30;46.10
67777;DHT22;54576;52.020;5.536;2022-07-24T15:21:30;30.30;46.00
67777;DHT22;54576;52.020;5.536;2022-07-24T15:23:56;30.30;46.00
67777;DHT22;54576;52.020;5.536;2022-07-24T15:26:21;30.30;46.00
67777;DHT22;54576;52.020;5.536;2022-07-24T15:28:47;30.30;45.90
67777;DHT22;54576;52.020;5.536;2022-07-24T15:31:13;30.30;46.00
67777;DHT22;54576;52.020;5.536;2022-07-24T15:33:42;30.30;46.10
67777;DHT22;54576;52.020;5.536;2022-07-24T15:36:08;30.30;46.10
67777;DHT22;54576;52.020;5.536;2022-07-24T15:38:34;30.40;47.00
67777;DHT22;54576;52.020;5.536;2022-07-24T15:40:59;30.40;45.70
67777;DHT22;54576;52.020;5.536;2022-07-24T15:43:25;30.40;45.80
67777;DHT22;54576;52.020;5.536;2022-07-24T15:45:51;30.30;45.70
67777;DHT22;54576;52.020;5.536;2022-07-24T15:48:16;30.30;45.80
67777;DHT22;54576;52.020;5.536;2022-07-24T15:50:42;30.20;45.90
67777;DHT22;54576;52.020;5.536;2022-07-24T15:53:07;30.20;45.80
67777;DHT22;54576;52.020;5.536;2022-07-24T15:55:33;30.30;46.10
67777;DHT22;54576;52.020;5.536;2022-07-24T15:57:58;30.30;46.00
67777;DHT22;54576;52.020;5.536;2022-07-24T16:00:24;30.30;46.00
67777;DHT22;54576;52.020;5.536;2022-07-24T16:02:49;30.30;46.10
67777;DHT22;54576;52.020;5.536;2022-07-24T16:05:15;30.30;46.00
67777;DHT22;54576;52.020;5.536;2022-07-24T16:07:42;30.30;46.30
67777;DHT22;54576;52.020;5.536;2022-07-24T16:10:08;30.30;46.00
67777;DHT22;54576;52.020;5.536;2022-07-24T16:12:33;30.30;46.00
67777;DHT22;54576;52.020;5.536;2022-07-24T16:14:59;30.30;46.10
67777;DHT22;54576;52.020;5.536;2022-07-24T16:17:25;30.30;46.10
67777;DHT22;54576;52.020;5.536;2022-07-24T16:19:51;30.30;46.20
67777;DHT22;54576;52.020;5.536;2022-07-24T16:22:17;30.20;46.10
67777;DHT22;54576;52.020;5.536;2022-07-24T16:24:42;30.20;46.10
67777;DHT22;54576;52.020;5.536;2022-07-24T16:27:08;30.20;46.30